Treasure Island, FL

6:40 PM EST on February 12, 2016 (GMT -0500)
KFLTREAS3 | | Change Station
CLOSE
Current Station
Personal Weather Station
Location: Treasure Island, FL
Elevation: 30 ft
Nearby Weather Stations

Elev 30 ft 27.77 °N, 82.77 °W | Updated 12 minutes ago

Clear
Clear
61.4 °F
Feels Like 61.4 °F
N
6.0
Wind Variable Wind from SSE
Gusts 9.0 mph

Today
High -- | Low -- °F
--% Chance of Precip.
Yesterday
High -- | Low -- °F
Precip. -- in
Pressure 30.21 in
Visibility 10.0 miles
Clouds Clear
Dew Point 58 °F
Humidity 87%
Rainfall 0.00 in
Snow Depth Not available.
7:11 AM 6:19 PM
Waxing Crescent, 24% visible
METAR KSPG 122253Z 23006KT 10SM CLR 18/12 A3021 RMK AO2 SLP229 T01830122
Pressure 30.21 in
Visibility 10.0 miles
Clouds Clear
Dew Point 58 °F
Humidity 87%
Rainfall 0.00 in
Snow Depth Not available.
7:11 AM 6:19 PM
Waxing Crescent, 24% visible
METAR KSPG 122253Z 23006KT 10SM CLR 18/12 A3021 RMK AO2 SLP229 T01830122

10-Day Weather Forecast

Almanac

Astronomy

Feb. 12, 2016 Rise Set
Actual Time
Civil Twilight
Nautical Twilight
Astronomical Twilight
Moon
Length of Visible Light
Length of Day
Tomorrow will be .
, % of the Moon is Illuminated

Today's Extremes

State Highs State Lows

Community

WunderPhotos

Upload Photos

1,892,437 photos uploaded!

WunderBlog® & News

Nearby

Air Quality

  Air Quality AQ Index Pollutant
Not available.

Snow Depth

Station Depth Elevation

Earthquake Activity

City Distance Mag. Time & Date
Minimum magnitude displayed is 2.5.

Coastal Water Temperatures

Place Temperature

Stations

Nearby Weather Stations

Station Location Temp. Windchill Dew Point Humidity Wind Precip. Elev Updated Type
                   

Watches & Warnings

There are currently no watches in effect.